Wind From: 11-12-2017 04:25 Until: 16:00 warning for: Wind Level: Orange info button

Power and phone distribution networks may be disrupted for relatively long periods., Roofs and chimneys can be damaged. , Tree branches may break. , Vehicles can be deported. , Traffic may be disrupted, particularly on secondary roads in forest areas. Limit your trips. , Limit your speed in highway driving, especially if you drive a vehicle or hitch sensitive to wind. , Do not go for walks in forests or along the coast., In town, be vigilant against possible falling objects., Do not work on roofs and do not touch any electrical line fallen on the ground., Store or secure sensitive objects to wind or likely to be damaged., Always install power generators outside buildings. 


Meteo18 Weather Cam more information Meteo18 Weather Cam


Thunder radar more information blitzortung!


Rain radar more information rain snow radar


Visit our other weather sites:

Template documentation
and downloads

And another site



Weather Underground History page Text

Daily Summary for January 13, 2016 Units:  Metric    English   Both
« Previous Day
Next Day »
Daily Weekly Monthly Yearly Custom
  High: Low: Average:
Temperature: 6.7 °C -0.6 °C 2.5 °C
Dew Point: 4.2 °C -1.2 °C 1.1 °C
Humidity: 96 % 79 % 91 %
Wind Speed: 12.9 km/h 0.0 km/h 1.8 km/h
Wind Gust: 14.5 km/h - -
Wind:- - SW
Pressure: 1022.9 hPa 1015.5 hPa -
Precipitation: 0.0 mm    
Historical Graphs
 
 
Tabular Data for January 13, 2016
Time Temperature Dew Point Pressure Wind Wind Speed Wind Gust Humidity Rainfall Rate (Hourly)
00:02 3.1 °C 1.5 °C 1015.5 hPa Calm   14.5 km/h 89 % 0.0 mm
00:07 3.1 °C 1.5 °C 1015.5 hPa South 4.8 km/h 14.5 km/h 89 % 0.0 mm
00:12 3.0 °C 1.4 °C 1015.5 hPa WSW 3.2 km/h 12.9 km/h 89 % 0.0 mm
00:17 2.9 °C 1.3 °C 1015.5 hPa Calm   12.9 km/h 89 % 0.0 mm
00:22 2.9 °C 1.3 °C 1015.5 hPa SW 3.2 km/h 12.9 km/h 89 % 0.0 mm
00:27 2.9 °C 1.3 °C 1015.8 hPa SW 9.7 km/h 11.3 km/h 89 % 0.0 mm
00:32 2.8 °C 1.2 °C 1015.8 hPa WSW 6.4 km/h 12.9 km/h 89 % 0.0 mm
00:42 2.8 °C 1.3 °C 1015.8 hPa SW 12.9 km/h 12.9 km/h 90 % 0.0 mm
00:47 2.8 °C 1.2 °C 1015.8 hPa SSE 3.2 km/h 12.9 km/h 89 % 0.0 mm
00:52 2.8 °C 1.2 °C 1016.1 hPa Calm   12.9 km/h 89 % 0.0 mm
00:57 2.7 °C 1.1 °C 1016.1 hPa SW 3.2 km/h 12.9 km/h 89 % 0.0 mm
01:02 2.7 °C 1.1 °C 1016.1 hPa SW 3.2 km/h 9.7 km/h 89 % 0.0 mm
01:07 2.7 °C 1.1 °C 1016.1 hPa Calm   12.9 km/h 89 % 0.0 mm
01:12 2.7 °C 1.1 °C 1016.1 hPa SW 1.6 km/h 12.9 km/h 89 % 0.0 mm
01:17 2.7 °C 1.1 °C 1016.1 hPa Calm   8.0 km/h 89 % 0.0 mm
01:32 2.6 °C 1.1 °C 1016.5 hPa WSW 3.2 km/h 8.0 km/h 90 % 0.0 mm
01:37 2.5 °C 0.9 °C 1016.5 hPa SW 9.7 km/h 11.3 km/h 89 % 0.0 mm
01:42 2.4 °C 0.8 °C 1016.5 hPa SW 1.6 km/h 11.3 km/h 89 % 0.0 mm
01:47 2.3 °C 0.8 °C 1016.8 hPa WSW 4.8 km/h 9.7 km/h 90 % 0.0 mm
01:52 2.3 °C 0.8 °C 1016.8 hPa SW 3.2 km/h 9.7 km/h 90 % 0.0 mm
01:57 2.2 °C 0.7 °C 1016.8 hPa Calm   9.7 km/h 90 % 0.0 mm
02:02 2.2 °C 0.9 °C 1016.8 hPa SSE 3.2 km/h 9.7 km/h 91 % 0.0 mm
02:12 2.1 °C 0.8 °C 1016.8 hPa SW 6.4 km/h 9.7 km/h 91 % 0.0 mm
02:17 2.1 °C 0.8 °C 1016.8 hPa SW 4.8 km/h 11.3 km/h 91 % 0.0 mm
02:22 2.2 °C 0.9 °C 1016.8 hPa WSW 6.4 km/h 11.3 km/h 91 % 0.0 mm
02:27 2.2 °C 0.9 °C 1017.2 hPa South 8.0 km/h 12.9 km/h 91 % 0.0 mm
02:32 2.1 °C 0.8 °C 1017.2 hPa WSW 6.4 km/h 12.9 km/h 91 % 0.0 mm
02:37 2.1 °C 0.8 °C 1017.2 hPa WSW 6.4 km/h 14.5 km/h 91 % 0.0 mm
02:42 2.0 °C 0.7 °C 1017.2 hPa SW 4.8 km/h 14.5 km/h 91 % 0.0 mm
02:47 1.9 °C 0.6 °C 1017.5 hPa SW 4.8 km/h 9.7 km/h 91 % 0.0 mm
02:52 1.9 °C 0.6 °C 1017.5 hPa Calm   11.3 km/h 91 % 0.0 mm
03:02 1.9 °C 0.6 °C 1017.8 hPa SW 6.4 km/h 11.3 km/h 91 % 0.0 mm
03:07 1.8 °C 0.5 °C 1017.8 hPa WSW 3.2 km/h 11.3 km/h 91 % 0.0 mm
03:12 1.8 °C 0.6 °C 1017.8 hPa South 4.8 km/h 11.3 km/h 92 % 0.0 mm
03:22 1.8 °C 0.6 °C 1018.2 hPa SW 3.2 km/h 11.3 km/h 92 % 0.0 mm
03:32 1.7 °C 0.5 °C 1018.2 hPa SW 11.3 km/h 11.3 km/h 92 % 0.0 mm
03:42 1.7 °C 0.5 °C 1018.5 hPa WSW 1.6 km/h 12.9 km/h 92 % 0.0 mm
03:47 1.6 °C 0.4 °C 1018.5 hPa SW 4.8 km/h 12.9 km/h 92 % 0.0 mm
03:52 1.6 °C 0.4 °C 1018.5 hPa South 3.2 km/h 11.3 km/h 92 % 0.0 mm
03:57 1.6 °C 0.4 °C 1018.5 hPa Calm   11.3 km/h 92 % 0.0 mm
04:02 1.5 °C 0.3 °C 1018.5 hPa SW 3.2 km/h 9.7 km/h 92 % 0.0 mm
04:12 1.4 °C 0.2 °C 1018.5 hPa SSE 1.6 km/h 12.9 km/h 92 % 0.0 mm
04:22 1.3 °C 0.3 °C 1018.5 hPa SW 3.2 km/h 8.0 km/h 93 % 0.0 mm
04:27 1.2 °C 0.2 °C 1018.8 hPa SE 6.4 km/h 9.7 km/h 93 % 0.0 mm
04:32 1.2 °C 0.2 °C 1018.8 hPa SW 1.6 km/h 9.7 km/h 93 % 0.0 mm
04:37 1.1 °C 0.1 °C 1018.8 hPa SW 1.6 km/h 9.7 km/h 93 % 0.0 mm
04:42 1.1 °C 0.1 °C 1018.8 hPa SW 4.8 km/h 9.7 km/h 93 % 0.0 mm
04:47 1.1 °C 0.1 °C 1018.8 hPa SW 3.2 km/h 8.0 km/h 93 % 0.0 mm
04:52 1.0 °C 0.0 °C 1018.8 hPa SW 4.8 km/h 8.0 km/h 93 % 0.0 mm
04:57 1.0 °C 0.0 °C 1018.8 hPa SSW 3.2 km/h 8.0 km/h 93 % 0.0 mm
05:02 1.0 °C 0.0 °C 1019.2 hPa Calm   8.0 km/h 93 % 0.0 mm
05:07 0.9 °C -0.1 °C 1019.2 hPa SSW 3.2 km/h 9.7 km/h 93 % 0.0 mm
05:12 0.9 °C -0.1 °C 1019.2 hPa Calm   9.7 km/h 93 % 0.0 mm
05:17 0.9 °C -0.1 °C 1019.2 hPa WSW 4.8 km/h 9.7 km/h 93 % 0.0 mm
05:22 1.0 °C 0.0 °C 1019.2 hPa WSW 4.8 km/h 9.7 km/h 93 % 0.0 mm
05:27 1.0 °C 0.0 °C 1019.2 hPa Calm   9.7 km/h 93 % 0.0 mm
05:37 1.1 °C 0.1 °C 1019.2 hPa SW 3.2 km/h 14.5 km/h 93 % 0.0 mm
05:42 1.0 °C 0.0 °C 1019.5 hPa WSW 1.6 km/h 14.5 km/h 93 % 0.0 mm
05:47 0.9 °C -0.1 °C 1019.5 hPa SW 4.8 km/h 14.5 km/h 93 % 0.0 mm
05:52 0.9 °C -0.1 °C 1019.5 hPa SW 4.8 km/h 9.7 km/h 93 % 0.0 mm
06:02 0.9 °C -0.1 °C 1019.5 hPa Calm   8.0 km/h 93 % 0.0 mm
06:07 0.8 °C -0.2 °C 1019.9 hPa Calm   8.0 km/h 93 % 0.0 mm
06:12 0.8 °C -0.2 °C 1019.9 hPa Calm   8.0 km/h 93 % 0.0 mm
06:22 0.7 °C -0.3 °C 1019.9 hPa Calm   8.0 km/h 93 % 0.0 mm
06:27 0.7 °C -0.2 °C 1019.9 hPa Calm   8.0 km/h 94 % 0.0 mm
06:32 0.7 °C -0.2 °C 1020.2 hPa SW 1.6 km/h 8.0 km/h 94 % 0.0 mm
06:37 0.8 °C -0.1 °C 1020.2 hPa SW 1.6 km/h 8.0 km/h 94 % 0.0 mm
06:42 0.8 °C -0.1 °C 1020.2 hPa SSW 3.2 km/h 6.4 km/h 94 % 0.0 mm
06:52 0.9 °C 0.0 °C 1020.2 hPa SW 3.2 km/h 9.7 km/h 94 % 0.0 mm
06:57 0.9 °C 0.0 °C 1020.2 hPa Calm   9.7 km/h 94 % 0.0 mm
07:02 1.0 °C 0.1 °C 1020.2 hPa SSW 1.6 km/h 9.7 km/h 94 % 0.0 mm
07:07 1.0 °C 0.0 °C 1020.5 hPa South 6.4 km/h 9.7 km/h 93 % 0.0 mm
07:12 1.1 °C 0.1 °C 1020.5 hPa WSW 1.6 km/h 9.7 km/h 93 % 0.0 mm
07:17 1.1 °C 0.1 °C 1020.5 hPa West 4.8 km/h 9.7 km/h 93 % 0.0 mm
07:22 1.1 °C 0.1 °C 1020.5 hPa WSW 3.2 km/h 8.0 km/h 93 % 0.0 mm
07:27 1.0 °C 0.0 °C 1020.5 hPa WSW 3.2 km/h 11.3 km/h 93 % 0.0 mm
07:32 1.0 °C 0.0 °C 1020.5 hPa SW 1.6 km/h 11.3 km/h 93 % 0.0 mm
07:37 1.0 °C 0.0 °C 1020.9 hPa Calm   11.3 km/h 93 % 0.0 mm
07:42 1.0 °C 0.0 °C 1020.5 hPa WSW 3.2 km/h 9.7 km/h 93 % 0.0 mm
07:47 1.0 °C 0.0 °C 1020.9 hPa SW 3.2 km/h 9.7 km/h 93 % 0.0 mm
07:52 0.9 °C -0.1 °C 1020.9 hPa Calm   9.7 km/h 93 % 0.0 mm
07:57 0.9 °C -0.1 °C 1020.9 hPa SW 3.2 km/h 9.7 km/h 93 % 0.0 mm
08:02 0.8 °C -0.2 °C 1020.9 hPa SW 1.6 km/h 9.7 km/h 93 % 0.0 mm
08:12 0.7 °C -0.3 °C 1021.2 hPa SW 1.6 km/h 4.8 km/h 93 % 0.0 mm
08:17 0.6 °C -0.3 °C 1021.2 hPa Calm   4.8 km/h 94 % 0.0 mm
08:22 0.5 °C -0.4 °C 1021.2 hPa Calm   3.2 km/h 94 % 0.0 mm
08:27 0.4 °C -0.5 °C 1021.6 hPa Calm   3.2 km/h 94 % 0.0 mm
08:32 0.6 °C -0.3 °C 1021.6 hPa SW 3.2 km/h 4.8 km/h 94 % 0.0 mm
08:42 0.7 °C -0.2 °C 1021.6 hPa SW 1.6 km/h 8.0 km/h 94 % 0.0 mm
08:47 0.8 °C -0.1 °C 1021.6 hPa Calm   8.0 km/h 94 % 0.0 mm
08:52 0.8 °C -0.1 °C 1021.6 hPa SSW 3.2 km/h 6.4 km/h 94 % 0.0 mm
08:57 0.8 °C -0.1 °C 1021.6 hPa Calm   6.4 km/h 94 % 0.0 mm
09:02 0.9 °C 0.0 °C 1021.6 hPa WSW 1.6 km/h 8.0 km/h 94 % 0.0 mm
09:12 1.1 °C 0.1 °C 1021.6 hPa SE 1.6 km/h 8.0 km/h 93 % 0.0 mm
09:17 1.2 °C 0.2 °C 1021.6 hPa SW 1.6 km/h 8.0 km/h 93 % 0.0 mm
09:22 1.2 °C 0.2 °C 1021.6 hPa Calm   6.4 km/h 93 % 0.0 mm
09:27 1.0 °C 0.0 °C 1021.9 hPa Calm   6.4 km/h 93 % 0.0 mm
09:32 0.8 °C -0.2 °C 1021.9 hPa Calm   6.4 km/h 93 % 0.0 mm
09:42 1.2 °C 0.3 °C 1021.9 hPa Calm   4.8 km/h 94 % 0.0 mm
09:52 1.4 °C 0.5 °C 1021.9 hPa SSW 4.8 km/h 6.4 km/h 94 % 0.0 mm
10:02 1.6 °C 0.6 °C 1022.2 hPa South 1.6 km/h 9.7 km/h 93 % 0.0 mm
10:12 1.8 °C 0.6 °C 1022.2 hPa WSW 1.6 km/h 8.0 km/h 92 % 0.0 mm
10:17 1.9 °C 0.7 °C 1022.2 hPa South 1.6 km/h 9.7 km/h 92 % 0.0 mm
10:22 2.1 °C 0.9 °C 1022.2 hPa Calm   9.7 km/h 92 % 0.0 mm
10:27 2.3 °C 1.1 °C 1022.2 hPa SW 4.8 km/h 9.7 km/h 92 % 0.0 mm
10:32 2.4 °C 1.1 °C 1022.2 hPa SW 1.6 km/h 6.4 km/h 91 % 0.0 mm
10:37 2.5 °C 1.2 °C 1022.2 hPa SW 3.2 km/h 6.4 km/h 91 % 0.0 mm
10:42 2.5 °C 1.0 °C 1022.6 hPa SW 6.4 km/h 9.7 km/h 90 % 0.0 mm
10:52 2.6 °C 1.1 °C 1022.6 hPa SW 1.6 km/h 11.3 km/h 90 % 0.0 mm
10:57 2.8 °C 1.5 °C 1022.6 hPa SSW 3.2 km/h 11.3 km/h 91 % 0.0 mm
11:02 2.9 °C 1.4 °C 1022.6 hPa SW 1.6 km/h 11.3 km/h 90 % 0.0 mm
11:12 3.1 °C 1.6 °C 1022.6 hPa Calm   8.0 km/h 90 % 0.0 mm
11:17 3.3 °C 1.8 °C 1022.6 hPa Calm   8.0 km/h 90 % 0.0 mm
11:22 3.3 °C 1.7 °C 1022.9 hPa WSW 6.4 km/h 6.4 km/h 89 % 0.0 mm
11:27 3.3 °C 1.8 °C 1022.9 hPa SW 4.8 km/h 9.7 km/h 90 % 0.0 mm
11:32 3.4 °C 1.8 °C 1022.9 hPa SW 1.6 km/h 9.7 km/h 89 % 0.0 mm
11:37 3.3 °C 1.7 °C 1022.9 hPa SW 1.6 km/h 8.0 km/h 89 % 0.0 mm
11:42 3.4 °C 1.8 °C 1022.9 hPa WSW 1.6 km/h 8.0 km/h 89 % 0.0 mm
11:47 3.6 °C 2.1 °C 1022.9 hPa SW 1.6 km/h 8.0 km/h 90 % 0.0 mm
11:52 3.7 °C 2.1 °C 1022.9 hPa Calm   6.4 km/h 89 % 0.0 mm
11:57 3.9 °C 2.3 °C 1022.6 hPa Calm   6.4 km/h 89 % 0.0 mm
12:02 4.1 °C 2.5 °C 1022.6 hPa WSW 1.6 km/h 3.2 km/h 89 % 0.0 mm
12:12 4.4 °C 2.4 °C 1022.6 hPa SW 1.6 km/h 3.2 km/h 87 % 0.0 mm
12:17 4.5 °C 2.7 °C 1022.6 hPa Calm   3.2 km/h 88 % 0.0 mm
12:22 4.5 °C 2.5 °C 1022.2 hPa SW 3.2 km/h 4.8 km/h 87 % 0.0 mm
12:27 4.5 °C 2.5 °C 1022.2 hPa SW 1.6 km/h 6.4 km/h 87 % 0.0 mm
12:32 4.6 °C 2.6 °C 1022.2 hPa SSW 1.6 km/h 6.4 km/h 87 % 0.0 mm
12:37 4.6 °C 2.5 °C 1022.2 hPa WSW 6.4 km/h 6.4 km/h 86 % 0.0 mm
12:42 4.7 °C 2.7 °C 1022.2 hPa West 1.6 km/h 6.4 km/h 87 % 0.0 mm
12:52 4.7 °C 2.7 °C 1022.2 hPa SW 1.6 km/h 11.3 km/h 87 % 0.0 mm
12:57 4.8 °C 2.7 °C 1022.2 hPa West 1.6 km/h 11.3 km/h 86 % 0.0 mm
13:02 4.9 °C 2.8 °C 1022.2 hPa SSW 3.2 km/h 9.7 km/h 86 % 0.0 mm
13:12 5.1 °C 3.0 °C 1022.2 hPa SW 3.2 km/h 8.0 km/h 86 % 0.0 mm
13:17 5.1 °C 2.8 °C 1022.2 hPa SW 1.6 km/h 6.4 km/h 85 % 0.0 mm
13:22 5.2 °C 3.1 °C 1022.2 hPa SW 3.2 km/h 6.4 km/h 86 % 0.0 mm
13:27 5.2 °C 2.9 °C 1022.2 hPa SW 1.6 km/h 6.4 km/h 85 % 0.0 mm
13:32 5.3 °C 2.8 °C 1022.2 hPa Calm   6.4 km/h 84 % 0.0 mm
13:37 5.4 °C 3.2 °C 1022.2 hPa Calm   6.4 km/h 86 % 0.0 mm
13:42 5.5 °C 3.2 °C 1022.2 hPa SSW 1.6 km/h 4.8 km/h 85 % 0.0 mm
13:47 5.6 °C 3.4 °C 1021.9 hPa Calm   4.8 km/h 86 % 0.0 mm
13:52 5.7 °C 3.4 °C 1021.9 hPa Calm   4.8 km/h 85 % 0.0 mm
13:57 5.8 °C 3.3 °C 1021.9 hPa SW 1.6 km/h 4.8 km/h 84 % 0.0 mm
14:02 5.8 °C 3.6 °C 1021.9 hPa SSW 1.6 km/h 8.0 km/h 86 % 0.0 mm
14:12 5.8 °C 3.3 °C 1021.9 hPa WSW 3.2 km/h 9.7 km/h 84 % 0.0 mm
14:22 5.9 °C 3.6 °C 1021.6 hPa SSE 1.6 km/h 9.7 km/h 85 % 0.0 mm
14:32 6.2 °C 4.2 °C 1021.6 hPa WSW 4.8 km/h 9.7 km/h 87 % 0.0 mm
14:37 6.2 °C 3.7 °C 1021.6 hPa WSW 4.8 km/h 9.7 km/h 84 % 0.0 mm
14:42 6.2 °C 3.7 °C 1021.6 hPa SW 6.4 km/h 8.0 km/h 84 % 0.0 mm
14:47 6.3 °C 3.8 °C 1021.6 hPa WSW 3.2 km/h 9.7 km/h 84 % 0.0 mm
14:52 6.3 °C 4.0 °C 1021.6 hPa WSW 1.6 km/h 9.7 km/h 85 % 0.0 mm
14:57 6.3 °C 3.6 °C 1021.6 hPa SW 3.2 km/h 9.7 km/h 83 % 0.0 mm
15:02 6.3 °C 3.8 °C 1021.2 hPa SW 6.4 km/h 11.3 km/h 84 % 0.0 mm
15:07 6.3 °C 3.8 °C 1021.2 hPa SW 4.8 km/h 11.3 km/h 84 % 0.0 mm
15:12 6.3 °C 3.8 °C 1021.2 hPa SW 3.2 km/h 9.7 km/h 84 % 0.0 mm
15:17 6.3 °C 3.8 °C 1021.2 hPa WSW 3.2 km/h 8.0 km/h 84 % 0.0 mm
15:22 6.3 °C 3.5 °C 1021.2 hPa SW 3.2 km/h 9.7 km/h 82 % 0.0 mm
15:27 6.4 °C 3.6 °C 1021.2 hPa SW 3.2 km/h 9.7 km/h 82 % 0.0 mm
15:32 6.4 °C 3.6 °C 1021.2 hPa SW 1.6 km/h 11.3 km/h 82 % 0.0 mm
15:37 6.5 °C 3.8 °C 1021.2 hPa SW 1.6 km/h 11.3 km/h 83 % 0.0 mm
15:42 6.6 °C 3.9 °C 1021.2 hPa SW 3.2 km/h 8.0 km/h 83 % 0.0 mm
15:47 6.7 °C 3.7 °C 1021.2 hPa Calm   8.0 km/h 81 % 0.0 mm
15:52 6.7 °C 3.3 °C 1021.2 hPa WSW 3.2 km/h 9.7 km/h 79 % 0.0 mm
15:57 6.7 °C 3.5 °C 1021.2 hPa SW 4.8 km/h 9.7 km/h 80 % 0.0 mm
16:02 6.7 °C 3.3 °C 1021.2 hPa SW 3.2 km/h 11.3 km/h 79 % 0.0 mm
16:07 6.6 °C 3.2 °C 1020.9 hPa SW 1.6 km/h 11.3 km/h 79 % 0.0 mm
16:12 6.6 °C 3.4 °C 1020.9 hPa SE 1.6 km/h 11.3 km/h 80 % 0.0 mm
16:22 6.5 °C 3.5 °C 1020.9 hPa WSW 1.6 km/h 8.0 km/h 81 % 0.0 mm
16:32 6.3 °C 3.5 °C 1020.9 hPa Calm   4.8 km/h 82 % 0.0 mm
16:37 6.2 °C 3.5 °C 1020.9 hPa Calm   3.2 km/h 83 % 0.0 mm
16:42 5.9 °C 3.2 °C 1020.9 hPa Calm   3.2 km/h 83 % 0.0 mm
16:52 5.7 °C 3.2 °C 1020.9 hPa Calm   1.6 km/h 84 % 0.0 mm
17:02 5.4 °C 2.9 °C 1020.5 hPa Calm   1.6 km/h 84 % 0.0 mm
17:12 4.9 °C 2.6 °C 1020.5 hPa Calm     85 % 0.0 mm
17:22 4.4 °C 2.4 °C 1020.5 hPa Calm     87 % 0.0 mm
17:27 4.1 °C 2.1 °C 1020.2 hPa Calm     87 % 0.0 mm
17:32 3.8 °C 2.0 °C 1020.2 hPa Calm     88 % 0.0 mm
17:37 3.7 °C 2.1 °C 1020.2 hPa Calm     89 % 0.0 mm
17:42 3.6 °C 2.1 °C 1020.2 hPa Calm     90 % 0.0 mm
17:47 3.4 °C 1.9 °C 1020.2 hPa Calm     90 % 0.0 mm
17:52 3.2 °C 1.9 °C 1020.2 hPa Calm     91 % 0.0 mm
17:57 3.0 °C 1.7 °C 1019.9 hPa Calm     91 % 0.0 mm
18:02 2.8 °C 1.5 °C 1019.9 hPa Calm     91 % 0.0 mm
18:12 2.7 °C 1.7 °C 1019.9 hPa Calm   1.6 km/h 93 % 0.0 mm
18:17 2.6 °C 1.4 °C 1019.9 hPa Calm   1.6 km/h 92 % 0.0 mm
18:22 2.5 °C 1.3 °C 1019.9 hPa Calm   1.6 km/h 92 % 0.0 mm
18:27 2.3 °C 1.1 °C 1019.9 hPa Calm     92 % 0.0 mm
18:32 2.2 °C 1.0 °C 1019.9 hPa Calm     92 % 0.0 mm
18:37 2.0 °C 0.8 °C 1019.9 hPa Calm     92 % 0.0 mm
18:42 1.9 °C 0.9 °C 1019.9 hPa Calm     93 % 0.0 mm
18:47 1.9 °C 1.0 °C 1019.9 hPa Calm     94 % 0.0 mm
18:52 1.9 °C 1.0 °C 1019.9 hPa Calm     94 % 0.0 mm
18:57 1.9 °C 1.0 °C 1019.9 hPa Calm     94 % 0.0 mm
19:02 1.9 °C 1.0 °C 1019.9 hPa Calm     94 % 0.0 mm
19:12 1.9 °C 1.0 °C 1019.9 hPa Calm     94 % 0.0 mm
19:17 1.8 °C 0.9 °C 1019.5 hPa Calm     94 % 0.0 mm
19:22 1.9 °C 1.2 °C 1019.5 hPa Calm     95 % 0.0 mm
19:27 1.9 °C 1.2 °C 1019.5 hPa Calm     95 % 0.0 mm
19:32 1.9 °C 1.2 °C 1019.5 hPa Calm     95 % 0.0 mm
19:37 1.9 °C 1.0 °C 1019.5 hPa Calm     94 % 0.0 mm
19:42 2.0 °C 1.3 °C 1019.5 hPa Calm     95 % 0.0 mm
19:52 1.9 °C 1.0 °C 1019.5 hPa Calm     94 % 0.0 mm
19:57 1.7 °C 0.8 °C 1019.5 hPa Calm     94 % 0.0 mm
20:02 1.6 °C 0.7 °C 1019.2 hPa Calm     94 % 0.0 mm
20:12 1.7 °C 1.0 °C 1019.2 hPa Calm   1.6 km/h 95 % 0.0 mm
20:17 1.7 °C 1.0 °C 1019.2 hPa Calm   1.6 km/h 95 % 0.0 mm
20:22 1.8 °C 1.1 °C 1019.2 hPa Calm   1.6 km/h 95 % 0.0 mm
20:27 1.9 °C 1.2 °C 1019.2 hPa SW 1.6 km/h 1.6 km/h 95 % 0.0 mm
20:32 2.1 °C 1.4 °C 1019.2 hPa SW 1.6 km/h 3.2 km/h 95 % 0.0 mm
20:37 2.3 °C 1.6 °C 1019.2 hPa Calm   3.2 km/h 95 % 0.0 mm
20:42 2.4 °C 1.5 °C 1018.8 hPa Calm   3.2 km/h 94 % 0.0 mm
20:47 2.3 °C 1.3 °C 1019.2 hPa Calm   3.2 km/h 93 % 0.0 mm
20:52 2.1 °C 1.1 °C 1018.8 hPa Calm   3.2 km/h 93 % 0.0 mm
20:57 1.9 °C 0.9 °C 1018.8 hPa Calm   1.6 km/h 93 % 0.0 mm
21:12 2.1 °C 1.2 °C 1018.8 hPa Calm   1.6 km/h 94 % 0.0 mm
21:17 2.1 °C 1.2 °C 1018.8 hPa Calm   1.6 km/h 94 % 0.0 mm
21:22 2.1 °C 1.2 °C 1018.8 hPa Calm   1.6 km/h 94 % 0.0 mm
21:27 2.0 °C 1.1 °C 1018.5 hPa Calm   1.6 km/h 94 % 0.0 mm
21:32 1.8 °C 0.8 °C 1018.5 hPa Calm   1.6 km/h 93 % 0.0 mm
21:37 1.6 °C 0.6 °C 1018.5 hPa Calm   1.6 km/h 93 % 0.0 mm
21:42 1.4 °C 0.4 °C 1018.5 hPa Calm   1.6 km/h 93 % 0.0 mm
21:47 1.1 °C 0.1 °C 1018.5 hPa Calm     93 % 0.0 mm
21:52 0.8 °C -0.4 °C 1018.5 hPa Calm     92 % 0.0 mm
21:57 0.6 °C -0.4 °C 1018.2 hPa Calm     93 % 0.0 mm
22:02 0.4 °C -0.6 °C 1018.2 hPa Calm     93 % 0.0 mm
22:07 0.3 °C -0.6 °C 1018.2 hPa Calm     94 % 0.0 mm
22:12 0.3 °C -0.6 °C 1018.2 hPa Calm     94 % 0.0 mm
22:17 0.2 °C -0.5 °C 1018.2 hPa Calm     95 % 0.0 mm
22:22 0.0 °C -0.8 °C 1018.2 hPa Calm   1.6 km/h 94 % 0.0 mm
22:32 -0.2 °C -0.9 °C 1017.8 hPa Calm   1.6 km/h 95 % 0.0 mm
22:42 -0.2 °C -0.8 °C 1017.8 hPa Calm     96 % 0.0 mm
22:47 -0.3 °C -0.9 °C 1017.8 hPa Calm     96 % 0.0 mm
22:52 -0.3 °C -0.9 °C 1017.8 hPa Calm     96 % 0.0 mm
22:57 -0.4 °C -1.0 °C 1017.5 hPa Calm     96 % 0.0 mm
23:02 -0.4 °C -1.0 °C 1017.5 hPa Calm     96 % 0.0 mm
23:07 -0.4 °C -1.0 °C 1017.5 hPa Calm     96 % 0.0 mm
23:12 -0.4 °C -1.0 °C 1017.5 hPa Calm     96 % 0.0 mm
23:17 -0.4 °C -1.0 °C 1017.5 hPa Calm     96 % 0.0 mm
23:22 -0.4 °C -1.0 °C 1017.5 hPa Calm     96 % 0.0 mm
23:27 -0.3 °C -0.9 °C 1017.5 hPa Calm     96 % 0.0 mm
23:32 -0.4 °C -1.0 °C 1017.5 hPa Calm     96 % 0.0 mm
23:37 -0.4 °C -1.0 °C 1017.5 hPa Calm     96 % 0.0 mm
23:42 -0.4 °C -1.0 °C 1017.2 hPa Calm     96 % 0.0 mm
23:47 -0.6 °C -1.2 °C 1017.2 hPa Calm     96 % 0.0 mm
23:52 -0.6 °C -1.2 °C 1017.2 hPa Calm     96 % 0.0 mm
23:57 -0.6 °C -1.2 °C 1017.2 hPa Calm     96 % 0.0 mm
Meteo18
Compliments of Weather Underground - 4 mb

Script developed by  Jim McMurry - jmcmurry@mwt.net Adapted for the template by  Wim van der Kuil - Leuven-Template.eu

You find our weather info also at:

European Weather Network

Weather Underground

Equipment we use:

Weather-station
Davis Vue

Weather-program
Meteohub

Weather-server
Raspberry PI 2 B+

Provider
1 and 1

Davis Vue

Meteohub

Raspberry PI 2 B+

1 and 1